Falcon — WBE7134 — position and weather

sailwx.info

Track history (hours):
 
Tides and Currents Weather Stations Pressure Air Temp Water Temp Dewpoint Dewpoint Depression Visibility Wind Speed Wind Dir Waves Ship Positions

Falcon

Owner: Allied Transportation Company, NORFOLK, VA. More information available from US FCC via Universal Licensing System and Coast Guard Vessel Documentation Center.

Last reported at 2018-Apr-21 09:00 UTC. Time now 2018-Apr-21 09:24 UTC.
Position N 39°55' W 073°59'.

Length 37 m; draft 6 m.

Type: Tug. MMSI: 366976720.

Date/timePositionNaut miles runAvg speedWind from/ knotsBaromVisibWave heightAir tempDewpointWater temp
2018-Apr-21 09:00N 39°55' W 073°59'3 5.8
2018-Apr-21 08:30N 39°52' W 073°60'3 5.7
2018-Apr-21 08:00N 39°49' W 074°00'3 5.6
2018-Apr-21 07:29N 39°46' W 074°01'3 5.5
2018-Apr-21 06:58N 39°43' W 074°01'3 5.5
2018-Apr-21 06:30N 39°41' W 074°01'3 5.5
2018-Apr-21 06:00N 39°38' W 074°01'3 5.5
2018-Apr-21 05:28N 39°35' W 074°02'3 5.5
2018-Apr-21 04:59N 39°33' W 074°04'3 5.6
2018-Apr-21 04:25N 39°30' W 074°06'169 5.4
2018-Apr-19 21:10N 37°01' W 075°45'1 5.6
2018-Apr-19 21:00N 36°60' W 075°46'7 5.3
2018-Apr-19 19:38N 36°53' W 075°47'116 5.8
2018-Apr-18 23:42N 34°57' W 075°32'2 5.7
2018-Apr-18 23:26N 34°56' W 075°33'19 5.7
2018-Apr-18 20:05N 34°44' W 075°52'0 5.7
2018-Apr-18 20:00N 34°44' W 075°52'4 5.6
2018-Apr-18 19:22N 34°42' W 075°55'2 5.6
2018-Apr-18 19:00N 34°40' W 075°57'3 5.5
2018-Apr-18 18:30N 34°39' W 075°60'3 5.4
2018-Apr-18 18:00N 34°37' W 076°03'3 5.5
2018-Apr-18 17:30N 34°35' W 076°05'3 5.6
2018-Apr-18 17:00N 34°33' W 076°07'3 5.5
2018-Apr-18 16:30N 34°31' W 076°09'3 5.5
2018-Apr-18 16:00N 34°29' W 076°12'3 5.7
2018-Apr-18 15:30N 34°27' W 076°14'4 6.2
2018-Apr-18 14:53N 34°24' W 076°17'7 6.7
2018-Apr-18 13:55N 34°20' W 076°23'3 6.8
2018-Apr-18 13:28N 34°18' W 076°26'3 6.7
2018-Apr-18 12:59N 34°15' W 076°29'  
2018-Apr-14 21:56N 27°06' W 080°00'4 7.7
2018-Apr-14 21:27N 27°03' W 080°00'3 7.2
2018-Apr-14 21:00N 26°59' W 080°00'4 7.3
2018-Apr-14 20:30N 26°56' W 080°00'4 8.2
2018-Apr-14 20:00N 26°52' W 080°01'4 8.0
2018-Apr-14 19:29N 26°48' W 080°00'2 3.9
2018-Apr-14 18:54N 26°46' W 080°03'  
2018-Apr-11 09:56N 26°46' W 080°03'0 0.8
2018-Apr-11 09:28N 26°46' W 080°03'  
Track history (hours):
 
Tides and Currents Weather Stations Pressure Air Temp Water Temp Dewpoint Dewpoint Depression Visibility Wind Speed Wind Dir Waves Ship Positions

Falcon

Owner: Allied Transportation Company, NORFOLK, VA. More information available from US FCC via Universal Licensing System and Coast Guard Vessel Documentation Center.

Last reported at 2018-Apr-21 09:00 UTC. Time now 2018-Apr-21 09:24 UTC.
Position N 39°55' W 073°59'.

Length 37 m; draft 6 m.

Type: Tug. MMSI: 366976720.

Date/timePositionNaut miles runAvg speedWind from/ knotsBaromVisibWave heightAir tempDewpointWater temp
2018-Apr-21 09:00N 39°55' W 073°59'3 5.8
2018-Apr-21 08:30N 39°52' W 073°60'3 5.7
2018-Apr-21 08:00N 39°49' W 074°00'3 5.6
2018-Apr-21 07:29N 39°46' W 074°01'3 5.5
2018-Apr-21 06:58N 39°43' W 074°01'3 5.5
2018-Apr-21 06:30N 39°41' W 074°01'3 5.5
2018-Apr-21 06:00N 39°38' W 074°01'3 5.5
2018-Apr-21 05:28N 39°35' W 074°02'3 5.5
2018-Apr-21 04:59N 39°33' W 074°04'3 5.6
2018-Apr-21 04:25N 39°30' W 074°06'169 5.4
2018-Apr-19 21:10N 37°01' W 075°45'1 5.6
2018-Apr-19 21:00N 36°60' W 075°46'7 5.3
2018-Apr-19 19:38N 36°53' W 075°47'116 5.8
2018-Apr-18 23:42N 34°57' W 075°32'2 5.7
2018-Apr-18 23:26N 34°56' W 075°33'19 5.7
2018-Apr-18 20:05N 34°44' W 075°52'0 5.7
2018-Apr-18 20:00N 34°44' W 075°52'4 5.6
2018-Apr-18 19:22N 34°42' W 075°55'2 5.6
2018-Apr-18 19:00N 34°40' W 075°57'3 5.5
2018-Apr-18 18:30N 34°39' W 075°60'3 5.4
2018-Apr-18 18:00N 34°37' W 076°03'3 5.5
2018-Apr-18 17:30N 34°35' W 076°05'3 5.6
2018-Apr-18 17:00N 34°33' W 076°07'3 5.5
2018-Apr-18 16:30N 34°31' W 076°09'3 5.5
2018-Apr-18 16:00N 34°29' W 076°12'3 5.7
2018-Apr-18 15:30N 34°27' W 076°14'4 6.2
2018-Apr-18 14:53N 34°24' W 076°17'7 6.7
2018-Apr-18 13:55N 34°20' W 076°23'3 6.8
2018-Apr-18 13:28N 34°18' W 076°26'3 6.7
2018-Apr-18 12:59N 34°15' W 076°29'  
2018-Apr-14 21:56N 27°06' W 080°00'4 7.7
2018-Apr-14 21:27N 27°03' W 080°00'3 7.2
2018-Apr-14 21:00N 26°59' W 080°00'4 7.3
2018-Apr-14 20:30N 26°56' W 080°00'4 8.2
2018-Apr-14 20:00N 26°52' W 080°01'4 8.0
2018-Apr-14 19:29N 26°48' W 080°00'2 3.9
2018-Apr-14 18:54N 26°46' W 080°03'  
2018-Apr-11 09:56N 26°46' W 080°03'0 0.8
2018-Apr-11 09:28N 26°46' W 080°03'  

Dump ship's entire track history